Metar z połowy godziny Komunikat METAR ze strony awiacja.imgw.pl Metar G30 EPGD METAR EPGD 200330Z 29018KT 8000 -SHRA FEW003 SCT011TCU BKN014 03/02 Q1009 =